Time;durP1;ratioP1;P1;durP2;ratioP2;P2;SDS_P1;SDS_P2;PMS_P1;PMS_P2;Temp;Humidity;BMP_temperature;BMP_pressure;BME280_temperature;BME280_humidity;BME280_pressure;Samples;Min_cycle;Max_cycle;Signal;HPM_P1;HPM_P2
2022/06/10 00:01:07;;;;;;;4.82;1.30;;;20.90;76.50;;;;;;5075913;28;20368;-90
2022/06/10 00:03:35;;;;;;;0.88;0.88;;;20.80;77.40;;;;;;5075993;28;20036;-90
2022/06/10 00:06:04;;;;;;;0.45;0.45;;;20.80;77.20;;;;;;5075789;28;20165;-90
2022/06/10 00:08:34;;;;;;;3.60;2.67;;;20.70;77.40;;;;;;5075891;28;20520;-90
2022/06/10 00:11:01;;;;;;;2.03;1.92;;;20.70;80.00;;;;;;5075862;28;20029;-90
2022/06/10 00:13:32;;;;;;;2.10;1.40;;;20.60;80.10;;;;;;5075541;28;20021;-89
2022/06/10 00:15:58;;;;;;;1.63;1.52;;;20.60;80.60;;;;;;5075542;28;20058;-90
2022/06/10 00:18:27;;;;;;;3.65;0.93;;;20.60;80.70;;;;;;5075808;28;20497;-89
2022/06/10 00:20:54;;;;;;;1.50;1.40;;;20.50;80.50;;;;;;5075703;28;20029;-89
2022/06/10 00:23:19;;;;;;;1.83;1.73;;;20.50;81.60;;;;;;5075511;28;20039;-89
2022/06/10 00:25:45;;;;;;;2.90;0.80;;;20.40;81.20;;;;;;5075474;28;20112;-89
2022/06/10 00:28:12;;;;;;;1.52;0.75;;;20.30;81.80;;;;;;5075398;28;20025;-90
2022/06/10 00:30:38;;;;;;;3.55;0.82;;;20.30;82.00;;;;;;5075629;28;20038;-90
2022/06/10 00:33:05;;;;;;;0.63;0.63;;;20.20;83.40;;;;;;5075613;28;20017;-90
2022/06/10 00:35:31;;;;;;;2.38;2.17;;;20.20;82.20;;;;;;5075894;28;20450;-90
2022/06/10 00:37:57;;;;;;;6.82;0.75;;;20.10;82.20;;;;;;5075257;28;20032;-90
2022/06/10 00:40:29;;;;;;;0.95;0.95;;;20.00;83.10;;;;;;5075546;28;20471;-90
2022/06/10 00:42:56;;;;;;;1.20;1.02;;;20.00;83.50;;;;;;5075202;28;20174;-90
2022/06/10 00:46:00;;;;;;;0.60;0.47;;;19.90;83.20;;;;;;5075277;28;20032;-89
2022/06/10 00:48:36;;;;;;;0.85;0.85;;;19.90;84.30;;;;;;5075240;28;20030;-90
2022/06/10 00:51:11;;;;;;;0.35;0.32;;;19.80;84.10;;;;;;5074928;28;20102;-89
2022/06/10 00:53:36;;;;;;;0.47;0.30;;;19.70;84.50;;;;;;5075634;28;20025;-89
2022/06/10 00:56:10;;;;;;;0.35;0.35;;;19.60;85.10;;;;;;5074917;28;20046;-90
2022/06/10 00:58:49;;;;;;;0.32;0.32;;;19.60;85.90;;;;;;5075044;28;20028;-90
2022/06/10 01:01:17;;;;;;;1.42;0.98;;;19.50;86.00;;;;;;5075402;28;20078;-90
2022/06/10 01:03:43;;;;;;;2.65;1.15;;;19.50;86.40;;;;;;5074690;28;20033;-89
2022/06/10 01:06:09;;;;;;;0.65;0.65;;;19.40;87.30;;;;;;5074870;28;20025;-90
2022/06/10 01:08:36;;;;;;;2.22;0.70;;;19.30;87.90;;;;;;5075021;28;20025;-89
2022/06/10 01:11:29;;;;;;;1.33;0.80;;;19.30;88.60;;;;;;5074766;28;20024;-90
2022/06/10 01:14:20;;;;;;;2.58;1.27;;;19.20;89.00;;;;;;5074891;28;20029;-89
2022/06/10 01:16:57;;;;;;;0.63;0.63;;;19.10;90.50;;;;;;5074802;28;20032;-89
2022/06/10 01:19:52;;;;;;;0.60;0.52;;;19.10;90.70;;;;;;5074680;28;20024;-90
2022/06/10 01:22:23;;;;;;;1.80;1.70;;;19.00;90.90;;;;;;5071286;28;20037;-90
2022/06/10 01:25:06;;;;;;;0.80;0.63;;;18.90;91.60;;;;;;5074640;28;20093;-90
2022/06/10 01:27:56;;;;;;;1.42;1.02;;;18.90;91.20;;;;;;5074697;28;20029;-89
2022/06/10 01:30:33;;;;;;;0.55;0.55;;;18.90;91.70;;;;;;5074325;28;20025;-90
2022/06/10 01:33:38;;;;;;;1.00;1.00;;;18.80;92.50;;;;;;5074177;28;20024;-90
2022/06/10 01:36:17;;;;;;;1.00;1.00;;;18.80;92.70;;;;;;5074162;28;20103;-90
2022/06/10 01:38:57;;;;;;;1.27;1.17;;;18.80;93.70;;;;;;5074479;28;20027;-90
2022/06/10 01:41:38;;;;;;;1.23;1.13;;;18.80;95.10;;;;;;5074022;28;20020;-90
2022/06/10 01:44:13;;;;;;;1.88;1.77;;;18.70;96.10;;;;;;5074127;28;20111;-89
2022/06/10 01:46:48;;;;;;;2.55;1.80;;;18.80;99.90;;;;;;5074330;28;20025;-89
2022/06/10 01:49:31;;;;;;;6.63;2.58;;;18.90;99.90;;;;;;5073689;28;20063;-89
2022/06/10 01:52:08;;;;;;;2.42;1.67;;;18.90;99.90;;;;;;5073757;28;20027;-90
2022/06/10 01:54:55;;;;;;;5.20;3.13;;;19.00;99.90;;;;;;5073552;28;20020;-90
2022/06/10 01:57:48;;;;;;;5.68;3.00;;;19.10;99.90;;;;;;5073708;28;20027;-90
2022/06/10 02:00:19;;;;;;;3.95;3.25;;;19.30;99.90;;;;;;5073627;28;20102;-90
2022/06/10 02:02:58;;;;;;;3.28;2.45;;;19.40;99.90;;;;;;5073574;28;20028;-90
2022/06/10 02:05:27;;;;;;;5.57;2.67;;;19.40;99.90;;;;;;5073907;28;20024;-91
2022/06/10 02:08:02;;;;;;;2.63;2.50;;;19.50;99.90;;;;;;5073482;28;20024;-88
2022/06/10 02:10:36;;;;;;;4.47;4.07;;;19.60;99.90;;;;;;5073443;28;20025;-90
2022/06/10 02:13:21;;;;;;;9.63;4.43;;;19.70;99.90;;;;;;5073370;28;20067;-90
2022/06/10 02:15:54;;;;;;;1.58;1.48;;;19.80;99.90;;;;;;5073421;28;20024;-90
2022/06/10 02:18:23;;;;;;;3.30;3.10;;;19.80;99.90;;;;;;5073256;28;20070;-89
2022/06/10 02:20:53;;;;;;;3.03;2.38;;;19.90;99.90;;;;;;5073034;28;20097;-89
2022/06/10 02:23:27;;;;;;;2.08;1.98;;;19.90;99.90;;;;;;5073746;28;20479;-89
2022/06/10 02:25:59;;;;;;;4.03;3.28;;;19.90;99.90;;;;;;5073759;28;20032;-89
2022/06/10 02:28:39;;;;;;;2.47;2.20;;;19.90;99.90;;;;;;5073596;28;20051;-90
2022/06/10 02:31:18;;;;;;;4.53;3.42;;;19.90;99.90;;;;;;5073269;28;20052;-89
2022/06/10 02:33:44;;;;;;;3.33;3.03;;;19.90;99.90;;;;;;5073386;28;20032;-89
2022/06/10 02:36:38;;;;;;;3.42;2.58;;;19.90;99.90;;;;;;5073604;28;20025;-89
2022/06/10 02:39:27;;;;;;;4.53;3.00;;;19.90;99.90;;;;;;5072798;28;20060;-89
2022/06/10 02:41:58;;;;;;;2.42;2.33;;;20.00;99.90;;;;;;5073025;28;20021;-90
2022/06/10 02:44:45;;;;;;;2.67;2.47;;;20.00;99.90;;;;;;5073539;28;20024;-90
2022/06/10 02:47:40;;;;;;;4.40;3.80;;;20.10;99.90;;;;;;5073264;28;20107;-90
2022/06/10 02:50:08;;;;;;;2.92;2.65;;;20.10;99.60;;;;;;5037295;28;20135;-89
2022/06/10 02:52:35;;;;;;;2.97;2.78;;;20.10;99.60;;;;;;5073138;28;20021;-89
2022/06/10 02:55:01;;;;;;;3.97;1.98;;;20.10;99.10;;;;;;5073161;28;20078;-90
2022/06/10 03:03:29;;;;;;;3.88;3.33;;;20.20;98.50;;;;;;5074633;28;20040;-89
2022/06/10 03:06:06;;;;;;;2.45;2.25;;;20.20;98.20;;;;;;5072824;28;20025;-89
2022/06/10 03:08:40;;;;;;;6.30;4.18;;;20.30;98.10;;;;;;5072903;28;20020;-89
2022/06/10 03:11:27;;;;;;;2.88;2.78;;;20.30;97.80;;;;;;5073928;28;20430;-89
2022/06/10 03:14:12;;;;;;;1.35;1.30;;;20.40;97.30;;;;;;5076971;28;20025;-89
2022/06/10 03:17:14;;;;;;;5.13;3.25;;;20.40;97.20;;;;;;5076873;28;20025;-89
2022/06/10 03:20:13;;;;;;;3.53;2.67;;;20.50;96.90;;;;;;5040078;28;20089;-89
2022/06/10 03:22:52;;;;;;;3.75;3.40;;;20.50;96.90;;;;;;5077125;28;20467;-89
2022/06/10 03:25:35;;;;;;;3.42;2.30;;;20.60;96.50;;;;;;5076677;28;20047;-89
2022/06/10 03:28:28;;;;;;;1.92;1.77;;;20.60;96.60;;;;;;5076631;28;20031;-89
2022/06/10 03:31:26;;;;;;;7.97;3.00;;;20.60;96.00;;;;;;5076295;28;20025;-90
2022/06/10 03:34:13;;;;;;;3.22;2.92;;;20.70;96.20;;;;;;5059359;28;20124;-89
2022/06/10 03:36:39;;;;;;;2.53;2.33;;;20.80;96.00;;;;;;5076442;28;20020;-89
2022/06/10 03:39:06;;;;;;;2.42;2.20;;;20.80;95.80;;;;;;5076593;28;20052;-89
2022/06/10 03:41:38;;;;;;;6.05;2.78;;;20.90;95.60;;;;;;5076448;28;20044;-89
2022/06/10 03:44:12;;;;;;;3.72;2.90;;;20.90;95.70;;;;;;5076588;28;20107;-89
2022/06/10 03:46:39;;;;;;;7.75;4.68;;;21.00;95.50;;;;;;5076495;28;20023;-89
2022/06/10 03:49:12;;;;;;;4.80;3.55;;;21.10;95.40;;;;;;5075978;28;20091;-89
2022/06/10 03:51:39;;;;;;;3.95;3.08;;;21.10;95.30;;;;;;5076036;28;20056;-90
2022/06/10 03:54:05;;;;;;;4.35;3.70;;;21.20;95.30;;;;;;5077180;28;20066;-89
2022/06/10 03:56:31;;;;;;;2.70;1.92;;;21.20;95.50;;;;;;5076024;28;20028;-90
2022/06/10 03:58:58;;;;;;;3.25;2.35;;;21.20;95.50;;;;;;5075910;28;20437;-90
2022/06/10 04:01:24;;;;;;;4.47;3.35;;;21.30;95.30;;;;;;5076818;28;20026;-90
2022/06/10 04:03:50;;;;;;;8.13;3.13;;;21.30;95.30;;;;;;5075931;28;20482;-90
2022/06/10 04:06:19;;;;;;;7.88;4.22;;;21.40;95.10;;;;;;5076029;28;20024;-91
2022/06/10 04:08:45;;;;;;;2.90;2.70;;;21.50;94.90;;;;;;5075871;28;20056;-89
2022/06/10 04:11:11;;;;;;;3.85;3.55;;;21.50;95.20;;;;;;5075679;28;20029;-90
2022/06/10 04:13:36;;;;;;;3.15;2.92;;;21.60;95.10;;;;;;5075745;28;20029;-90
2022/06/10 04:16:02;;;;;;;2.58;2.38;;;21.70;94.80;;;;;;5075981;28;20021;-89
2022/06/10 04:18:28;;;;;;;2.75;2.47;;;21.80;94.70;;;;;;5075564;28;20046;-90
2022/06/10 04:20:54;;;;;;;3.67;3.38;;;21.80;94.40;;;;;;5075940;28;20029;-90
2022/06/10 04:23:20;;;;;;;4.45;3.63;;;21.90;94.10;;;;;;5075157;28;20036;-90
2022/06/10 04:25:46;;;;;;;3.60;3.30;;;22.00;93.90;;;;;;5075650;28;20479;-89
2022/06/10 04:28:12;;;;;;;3.78;3.53;;;22.10;93.80;;;;;;5075606;28;20032;-90
2022/06/10 04:30:44;;;;;;;3.45;2.83;;;22.20;93.20;;;;;;5075468;28;20035;-89
2022/06/10 04:33:10;;;;;;;7.93;5.50;;;22.30;93.20;;;;;;5075621;28;20020;-89
2022/06/10 04:35:38;;;;;;;16.95;5.47;;;22.40;93.20;;;;;;5075445;28;20048;-90
2022/06/10 04:38:05;;;;;;;3.60;3.30;;;22.50;93.20;;;;;;5075550;28;20024;-89
2022/06/10 04:40:33;;;;;;;5.15;3.92;;;22.60;92.80;;;;;;5075082;28;20024;-89
2022/06/10 04:42:59;;;;;;;6.45;3.17;;;22.60;92.50;;;;;;5075559;28;20066;-90
2022/06/10 04:45:28;;;;;;;3.70;3.33;;;22.70;92.50;;;;;;5075342;28;20077;-89
2022/06/10 04:47:54;;;;;;;4.97;4.47;;;22.80;92.20;;;;;;5075507;28;20493;-89
2022/06/10 04:50:22;;;;;;;4.80;3.60;;;22.80;92.20;;;;;;5074939;28;20056;-90
2022/06/10 04:52:47;;;;;;;9.70;3.25;;;23.00;91.70;;;;;;5075425;28;20378;-90
2022/06/10 04:55:13;;;;;;;2.33;2.13;;;23.10;91.50;;;;;;5075017;28;20032;-90
2022/06/10 04:57:39;;;;;;;4.03;3.20;;;23.20;90.50;;;;;;5075269;28;20174;-89
2022/06/10 05:00:08;;;;;;;3.80;2.17;;;23.30;90.70;;;;;;5075000;28;20031;-89
2022/06/10 05:02:34;;;;;;;5.18;3.50;;;23.40;90.40;;;;;;5075021;28;20035;-89
2022/06/10 05:05:00;;;;;;;2.63;2.42;;;23.50;90.40;;;;;;5074760;28;20033;-89
2022/06/10 16:51:59;;;;;;;1.88;0.88;;;26.90;51.70;;;;;;5088067;27;20387;-91
2022/06/10 16:54:26;;;;;;;1.08;0.98;;;26.30;51.10;;;;;;5070594;28;20098;-91
2022/06/10 16:56:51;;;;;;;0.80;0.77;;;26.30;52.60;;;;;;5070525;28;20637;-91
2022/06/10 16:59:22;;;;;;;0.77;0.77;;;26.40;51.80;;;;;;5070748;28;20088;-96
2022/06/10 17:01:54;;;;;;;0.77;0.77;;;26.50;52.10;;;;;;5070622;28;20054;-94
2022/06/10 17:04:20;;;;;;;3.17;1.63;;;26.70;53.20;;;;;;5071521;28;20025;-94
2022/06/10 17:06:46;;;;;;;0.40;0.40;;;27.00;53.30;;;;;;5070341;28;20043;-93
2022/06/10 17:09:12;;;;;;;0.30;0.30;;;27.30;53.30;;;;;;5070962;28;20021;-92
2022/06/10 17:11:41;;;;;;;0.10;0.10;;;27.60;51.50;;;;;;5070650;28;20135;-96
2022/06/10 17:14:10;;;;;;;;;;;28.00;51.20;;;;;;5072205;28;20056;-96
2022/06/10 17:16:38;;;;;;;1.05;0.57;;;28.20;50.20;;;;;;5075129;28;19912;-96
2022/06/10 17:19:07;;;;;;;0.20;0.20;;;28.20;50.20;;;;;;5077735;28;20021;-96
2022/06/10 17:24:33;;;;;;;1.48;0.85;;;28.10;52.20;;;;;;5029909;23;20053;-96
2022/06/10 17:26:58;;;;;;;2.88;2.58;;;27.90;51.80;;;;;;5007143;28;20030;-96
2022/06/10 17:29:31;;;;;;;3.95;0.75;;;27.70;52.00;;;;;;4999228;28;20507;-96
2022/06/10 17:31:57;;;;;;;0.90;0.85;;;27.50;53.20;;;;;;4996895;28;20026;-96
2022/06/10 17:34:23;;;;;;;0.20;0.20;;;27.30;52.30;;;;;;4997559;28;20041;-96
2022/06/10 17:36:49;;;;;;;0.15;0.15;;;27.10;54.10;;;;;;4995372;28;20022;-95
2022/06/10 17:39:16;;;;;;;0.25;0.25;;;26.90;56.20;;;;;;4994055;28;20029;-96
2022/06/10 17:41:51;;;;;;;0.00;0.00;;;26.70;55.50;;;;;;4993952;28;20535;-95
2022/06/10 17:44:30;;;;;;;0.35;0.35;;;26.40;56.90;;;;;;4993893;28;20034;-95
2022/06/10 17:47:00;;;;;;;0.03;0.03;;;26.20;58.30;;;;;;4993932;28;20050;-96
2022/06/10 17:49:34;;;;;;;0.08;0.08;;;26.00;58.80;;;;;;4993707;28;20563;-95
2022/06/10 17:52:10;;;;;;;0.10;0.10;;;25.80;59.30;;;;;;4997194;28;20030;-95
2022/06/10 17:54:37;;;;;;;0.10;0.10;;;25.50;59.80;;;;;;5002316;28;20025;-96
2022/06/10 17:57:15;;;;;;;0.30;0.30;;;25.40;60.30;;;;;;5002248;28;20113;-96
2022/06/10 17:59:41;;;;;;;0.55;0.52;;;25.20;61.10;;;;;;4995047;28;20023;-96
2022/06/10 18:02:39;;;;;;;0.32;0.32;;;25.00;60.60;;;;;;4990172;28;20028;-94
2022/06/10 18:05:14;;;;;;;0.10;0.10;;;24.80;61.60;;;;;;4979859;28;20030;-93
2022/06/10 18:07:40;;;;;;;0.05;0.05;;;24.60;61.30;;;;;;4989034;28;20477;-95
2022/06/10 18:10:06;;;;;;;0.47;0.28;;;24.40;63.10;;;;;;4988731;28;20094;-95
2022/06/10 18:12:32;;;;;;;0.13;0.13;;;24.30;63.30;;;;;;4986184;28;20026;-93
2022/06/10 18:15:08;;;;;;;0.85;0.60;;;24.20;63.20;;;;;;4984838;28;20090;-94
2022/06/10 18:17:38;;;;;;;0.13;0.10;;;24.00;63.40;;;;;;4980302;28;20026;-94
2022/06/10 18:20:09;;;;;;;0.28;0.28;;;23.90;63.00;;;;;;4984220;28;20038;-93
2022/06/10 18:22:35;;;;;;;0.43;0.43;;;23.70;63.90;;;;;;4989702;28;20065;-92
2022/06/10 18:25:01;;;;;;;0.20;0.20;;;23.60;65.00;;;;;;4985744;28;20050;-91
2022/06/10 18:27:32;;;;;;;0.10;0.10;;;23.50;65.60;;;;;;4988752;28;20046;-93
2022/06/10 18:30:00;;;;;;;0.22;0.22;;;23.40;65.30;;;;;;4990554;28;20057;-93
2022/06/10 18:32:31;;;;;;;0.77;0.65;;;23.40;64.90;;;;;;4990371;28;20090;-92
2022/06/10 18:35:02;;;;;;;0.28;0.28;;;23.20;66.40;;;;;;4981857;28;20034;-95
2022/06/10 18:37:29;;;;;;;0.45;0.45;;;23.10;65.90;;;;;;4979803;28;20050;-95
